createdAt,value
2017-09-13T00:01:56.490Z,99.90
2017-09-13T00:04:24.018Z,99.90
2017-09-13T00:06:51.590Z,99.90
2017-09-13T00:09:19.154Z,99.90
2017-09-13T00:11:46.682Z,99.90
2017-09-13T00:14:14.988Z,99.90
2017-09-13T00:16:42.529Z,99.90
2017-09-13T00:19:10.052Z,99.90
2017-09-13T00:21:37.681Z,99.90
2017-09-13T00:24:05.216Z,99.90
2017-09-13T00:26:32.733Z,99.90
2017-09-13T00:29:00.281Z,99.90
2017-09-13T00:31:27.805Z,99.90
2017-09-13T00:33:55.325Z,99.90
2017-09-13T00:36:23.629Z,99.90
2017-09-13T00:38:51.149Z,99.90
2017-09-13T00:41:18.673Z,99.90
2017-09-13T00:43:46.217Z,99.90
2017-09-13T00:46:14.563Z,99.90
2017-09-13T00:48:42.868Z,99.90
2017-09-13T00:51:10.404Z,99.90
2017-09-13T00:53:38.688Z,99.90
2017-09-13T00:56:06.214Z,99.90
2017-09-13T00:58:33.750Z,99.90
2017-09-13T01:01:01.286Z,99.90
2017-09-13T01:03:28.806Z,99.90
2017-09-13T01:05:57.113Z,99.90
2017-09-13T01:08:24.643Z,99.90
2017-09-13T01:10:52.942Z,99.90
2017-09-13T01:13:21.531Z,99.90
2017-09-13T01:15:49.057Z,99.90
2017-09-13T01:18:17.338Z,99.90
2017-09-13T01:20:45.646Z,99.90
2017-09-13T01:23:13.218Z,99.90
2017-09-13T01:25:40.778Z,99.90
2017-09-13T01:28:08.337Z,99.90
2017-09-13T01:30:35.857Z,99.90
2017-09-13T01:33:04.141Z,99.90
2017-09-13T01:35:32.450Z,99.90
2017-09-13T01:37:59.973Z,99.90
2017-09-13T01:40:28.257Z,99.90
2017-09-13T01:42:56.558Z,99.90
2017-09-13T01:45:24.095Z,99.90
2017-09-13T01:47:57.481Z,99.90
2017-09-13T01:50:25.765Z,99.90
2017-09-13T01:52:54.053Z,99.90
2017-09-13T01:55:22.744Z,99.90
2017-09-13T01:57:50.313Z,99.90
2017-09-13T02:00:17.870Z,99.90
2017-09-13T02:02:45.445Z,99.90
2017-09-13T02:05:12.994Z,99.90
2017-09-13T02:07:40.517Z,99.90
2017-09-13T02:10:08.839Z,99.90
2017-09-13T02:12:36.714Z,99.90
2017-09-13T02:15:04.243Z,99.90
2017-09-13T02:17:31.782Z,99.90
2017-09-13T02:20:00.102Z,99.90
2017-09-13T02:22:27.626Z,99.90
2017-09-13T02:24:55.994Z,99.90
2017-09-13T02:27:24.290Z,99.90
2017-09-13T02:29:53.825Z,99.90
2017-09-13T02:32:21.362Z,99.90
2017-09-13T02:34:48.886Z,99.90
2017-09-13T02:37:16.402Z,99.90
2017-09-13T02:39:43.946Z,99.90
2017-09-13T02:42:11.613Z,99.90
2017-09-13T02:44:39.134Z,99.90
2017-09-13T02:47:08.081Z,99.90
2017-09-13T02:49:36.639Z,99.90
2017-09-13T02:52:04.265Z,99.90
2017-09-13T02:54:31.809Z,99.90
2017-09-13T02:56:59.329Z,99.90
2017-09-13T02:59:26.850Z,99.90
2017-09-13T03:01:55.151Z,99.90
2017-09-13T03:04:22.668Z,99.90
2017-09-13T03:06:50.189Z,99.90
2017-09-13T03:09:17.742Z,99.90
2017-09-13T03:11:45.306Z,99.90
2017-09-13T03:14:12.846Z,99.90
2017-09-13T03:16:40.545Z,99.90
2017-09-13T03:19:08.064Z,99.90
2017-09-13T03:21:35.653Z,99.90
2017-09-13T03:24:03.190Z,99.90
2017-09-13T03:26:30.762Z,99.90
2017-09-13T03:28:58.276Z,99.90
2017-09-13T03:31:25.815Z,99.90
2017-09-13T03:33:53.334Z,99.90
2017-09-13T03:36:20.858Z,99.90
2017-09-13T03:38:49.166Z,99.90
2017-09-13T03:41:16.742Z,99.90
2017-09-13T03:43:44.266Z,99.90
2017-09-13T03:46:12.569Z,99.90
2017-09-13T03:48:40.086Z,99.90
2017-09-13T03:51:07.605Z,99.90
2017-09-13T03:53:35.137Z,99.90
2017-09-13T03:56:02.652Z,99.90
2017-09-13T03:58:30.165Z,99.90
2017-09-13T04:00:57.696Z,99.90
2017-09-13T04:03:26.898Z,99.90
2017-09-13T04:05:56.093Z,99.90
2017-09-13T04:08:24.427Z,99.90
2017-09-13T04:10:51.955Z,99.90
2017-09-13T04:13:19.517Z,99.90
2017-09-13T04:15:47.078Z,99.90
2017-09-13T04:18:14.637Z,99.90
2017-09-13T04:20:42.160Z,99.90
2017-09-13T04:23:10.471Z,99.90
2017-09-13T04:25:37.987Z,99.90
2017-09-13T04:28:05.504Z,99.90
2017-09-13T04:30:33.053Z,99.90
2017-09-13T04:33:00.614Z,99.90
2017-09-13T04:35:28.130Z,99.90
2017-09-13T04:37:57.368Z,99.90
2017-09-13T04:40:24.923Z,99.90
2017-09-13T04:42:52.441Z,99.90
2017-09-13T04:45:19.981Z,99.90
2017-09-13T04:47:47.506Z,99.90
2017-09-13T04:50:15.026Z,99.90
2017-09-13T04:52:43.329Z,99.90
2017-09-13T04:55:10.869Z,99.90
2017-09-13T04:57:39.181Z,99.90
2017-09-13T05:00:06.715Z,99.90
2017-09-13T05:02:34.240Z,99.90
2017-09-13T05:05:01.757Z,99.90
2017-09-13T05:07:29.293Z,99.90
2017-09-13T05:09:56.881Z,99.90
2017-09-13T05:12:24.435Z,99.90
2017-09-13T05:14:52.009Z,99.90
2017-09-13T05:17:19.509Z,99.90
2017-09-13T05:19:47.026Z,99.90
2017-09-13T05:22:14.573Z,99.90
2017-09-13T05:24:42.090Z,99.90
2017-09-13T05:27:10.376Z,99.90
2017-09-13T05:29:38.686Z,99.90
2017-09-13T05:32:06.218Z,99.90
2017-09-13T05:34:34.508Z,99.90
2017-09-13T05:37:02.062Z,99.90
2017-09-13T05:39:29.596Z,99.90
2017-09-13T05:41:57.894Z,99.90
2017-09-13T05:44:26.618Z,99.90
2017-09-13T05:46:54.146Z,99.90
2017-09-13T05:49:21.758Z,99.90
2017-09-13T05:51:49.295Z,99.90
2017-09-13T05:54:16.834Z,99.90
2017-09-13T05:56:44.401Z,99.90
2017-09-13T05:59:11.960Z,99.90
2017-09-13T06:01:39.532Z,99.90
2017-09-13T06:04:07.082Z,99.90
2017-09-13T06:06:34.645Z,99.90
2017-09-13T06:09:02.169Z,99.90
2017-09-13T06:11:31.384Z,99.90
2017-09-13T06:13:58.925Z,99.90
2017-09-13T06:16:27.212Z,99.90
2017-09-13T06:18:55.492Z,99.90
2017-09-13T06:21:23.076Z,99.90
2017-09-13T06:23:50.589Z,99.90
2017-09-13T06:26:18.107Z,99.90
2017-09-13T06:28:45.649Z,99.90
2017-09-13T06:31:13.211Z,99.90
2017-09-13T06:33:40.731Z,99.90
2017-09-13T06:36:09.058Z,99.90
2017-09-13T06:38:36.606Z,99.90
2017-09-13T06:41:04.126Z,99.90
2017-09-13T06:43:31.978Z,99.90
2017-09-13T06:45:59.504Z,99.90
2017-09-13T06:48:27.030Z,99.90
2017-09-13T06:50:54.594Z,99.90
2017-09-13T06:53:22.342Z,99.90
2017-09-13T06:55:50.662Z,99.90
2017-09-13T06:58:18.201Z,99.90
2017-09-13T07:00:45.729Z,99.90
2017-09-13T07:03:14.013Z,99.90
2017-09-13T07:05:42.323Z,99.90
2017-09-13T07:08:09.842Z,99.90
2017-09-13T07:10:46.376Z,99.90
2017-09-13T07:13:13.889Z,99.90
2017-09-13T07:15:42.206Z,99.90
2017-09-13T07:18:09.756Z,99.90
2017-09-13T07:20:37.316Z,99.90
2017-09-13T07:23:04.843Z,99.90
2017-09-13T07:25:34.069Z,99.90
2017-09-13T07:28:01.592Z,99.90
2017-09-13T07:30:29.904Z,99.90
2017-09-13T07:32:57.467Z,99.90
2017-09-13T07:35:24.987Z,99.90
2017-09-13T07:37:53.303Z,99.90
2017-09-13T07:40:20.840Z,99.90
2017-09-13T07:42:48.418Z,99.90
2017-09-13T07:45:15.946Z,99.90
2017-09-13T07:47:44.354Z,99.90
2017-09-13T07:50:11.882Z,99.90
2017-09-13T07:52:40.201Z,99.90
2017-09-13T07:55:07.752Z,99.90
2017-09-13T07:57:35.282Z,99.90
2017-09-13T08:00:03.578Z,99.90
2017-09-13T08:02:31.153Z,99.90
2017-09-13T08:04:58.925Z,99.90
2017-09-13T08:07:26.445Z,99.90
2017-09-13T08:09:54.791Z,99.90
2017-09-13T08:12:22.316Z,99.90
2017-09-13T08:14:49.851Z,99.90
2017-09-13T08:17:17.433Z,99.90
2017-09-13T08:19:44.956Z,99.90
2017-09-13T08:22:13.270Z,99.90
2017-09-13T08:24:40.815Z,99.90
2017-09-13T08:27:08.347Z,99.90
2017-09-13T08:29:36.197Z,99.90
2017-09-13T08:32:03.735Z,99.90
2017-09-13T08:34:31.386Z,99.90
2017-09-13T08:36:58.904Z,99.90
2017-09-13T08:39:27.213Z,99.90
2017-09-13T08:41:54.744Z,99.90
2017-09-13T08:44:22.270Z,99.90
2017-09-13T08:46:49.822Z,99.90
2017-09-13T08:49:17.446Z,99.90
2017-09-13T08:51:44.973Z,99.90
2017-09-13T08:54:13.280Z,99.90
2017-09-13T08:56:40.861Z,99.90
2017-09-13T08:59:08.386Z,99.90
2017-09-13T09:01:35.938Z,99.90
2017-09-13T09:04:03.485Z,99.90
2017-09-13T09:06:31.900Z,99.90
2017-09-13T09:08:59.438Z,99.90
2017-09-13T09:11:27.039Z,99.90
2017-09-13T09:13:54.561Z,99.90
2017-09-13T09:16:22.107Z,99.90
2017-09-13T09:18:50.401Z,99.90
2017-09-13T09:21:17.925Z,99.90
2017-09-13T09:23:45.536Z,99.90
2017-09-13T09:26:13.063Z,99.90
2017-09-13T09:28:41.382Z,99.90
2017-09-13T09:31:08.928Z,99.90
2017-09-13T09:33:36.490Z,99.90
2017-09-13T09:36:04.007Z,99.90
2017-09-13T09:38:32.314Z,99.90
2017-09-13T09:40:59.842Z,99.90
2017-09-13T09:43:27.364Z,99.90
2017-09-13T09:45:54.906Z,99.90
2017-09-13T09:48:22.442Z,99.90
2017-09-13T09:50:49.962Z,99.90
2017-09-13T09:53:17.510Z,99.90
2017-09-13T09:55:45.046Z,99.90
2017-09-13T09:58:12.570Z,99.90
2017-09-13T10:00:40.378Z,99.90
2017-09-13T10:03:07.902Z,99.90
2017-09-13T10:05:35.485Z,99.90
2017-09-13T10:08:03.029Z,99.90
2017-09-13T10:10:30.577Z,99.90
2017-09-13T10:12:58.861Z,99.90
2017-09-13T10:15:26.441Z,99.90
2017-09-13T10:17:53.961Z,99.90
2017-09-13T10:20:22.249Z,99.90
2017-09-13T10:22:50.555Z,99.90
2017-09-13T10:25:18.083Z,99.90
2017-09-13T10:27:46.445Z,99.90
2017-09-13T10:30:14.756Z,99.90
2017-09-13T10:32:42.277Z,99.90
2017-09-13T10:35:09.806Z,99.90
2017-09-13T10:37:37.353Z,99.90
2017-09-13T10:40:04.871Z,99.90
2017-09-13T10:42:33.162Z,99.90
2017-09-13T10:45:00.746Z,99.90
2017-09-13T10:47:28.270Z,99.90
2017-09-13T10:49:56.573Z,99.90
2017-09-13T10:52:24.138Z,99.90
2017-09-13T10:54:51.661Z,99.90
2017-09-13T10:57:19.978Z,99.90
2017-09-13T10:59:47.532Z,99.90
2017-09-13T11:02:15.094Z,99.90
2017-09-13T11:04:43.386Z,99.90
2017-09-13T11:07:11.030Z,99.90
2017-09-13T11:09:38.593Z,99.90
2017-09-13T11:12:06.122Z,99.90
2017-09-13T11:14:34.434Z,99.90
2017-09-13T11:17:01.953Z,99.90
2017-09-13T11:19:30.264Z,99.90
2017-09-13T11:21:57.829Z,99.90
2017-09-13T11:24:25.350Z,99.90
2017-09-13T11:26:53.645Z,99.90
2017-09-13T11:29:21.185Z,99.90
2017-09-13T11:31:49.495Z,99.90
2017-09-13T11:34:17.057Z,99.90
2017-09-13T11:36:45.521Z,99.90
2017-09-13T11:39:13.036Z,99.90
2017-09-13T11:41:40.552Z,99.90
2017-09-13T11:44:08.093Z,99.90
2017-09-13T11:46:35.631Z,99.90
2017-09-13T11:49:03.915Z,99.90
2017-09-13T11:51:32.225Z,99.90
2017-09-13T11:54:00.439Z,99.90
2017-09-13T11:56:27.960Z,99.90
2017-09-13T11:58:55.500Z,99.90
2017-09-13T12:01:23.082Z,99.90
2017-09-13T12:03:50.600Z,99.90
2017-09-13T12:06:18.981Z,99.90
2017-09-13T12:08:47.266Z,99.90
2017-09-13T12:11:16.476Z,99.90
2017-09-13T12:13:44.054Z,99.90
2017-09-13T12:16:11.582Z,99.90
2017-09-13T12:18:39.861Z,99.90
2017-09-13T12:21:07.422Z,99.90
2017-09-13T12:23:35.009Z,99.90
2017-09-13T12:26:02.533Z,99.90
2017-09-13T12:28:30.941Z,99.00
2017-09-13T12:30:58.565Z,99.00
2017-09-13T12:33:26.857Z,92.70
2017-09-13T12:35:55.265Z,93.50
2017-09-13T12:38:22.797Z,93.50
2017-09-13T12:40:50.339Z,95.30
2017-09-13T12:43:18.252Z,96.90
2017-09-13T12:45:45.782Z,96.40
2017-09-13T12:48:14.097Z,94.90
2017-09-13T12:50:41.642Z,94.70
2017-09-13T12:53:09.158Z,95.90
2017-09-13T12:55:36.679Z,97.60
2017-09-13T12:58:04.227Z,97.90
2017-09-13T13:00:31.767Z,99.90
2017-09-13T13:02:59.322Z,99.90
2017-09-13T13:05:26.865Z,99.90
2017-09-13T13:07:55.186Z,99.90
2017-09-13T13:10:22.722Z,99.90
2017-09-13T13:12:50.270Z,98.30
2017-09-13T13:15:19.510Z,95.80
2017-09-13T13:17:47.034Z,95.80
2017-09-13T13:20:14.584Z,96.60
2017-09-13T13:22:42.873Z,97.70
2017-09-13T13:25:10.400Z,97.70
2017-09-13T13:27:37.949Z,98.00
2017-09-13T13:30:05.461Z,96.00
2017-09-13T13:32:32.982Z,95.00
2017-09-13T13:35:01.321Z,96.40
2017-09-13T13:37:28.849Z,96.40
2017-09-13T13:39:56.501Z,97.80
2017-09-13T13:42:24.037Z,98.60
2017-09-13T13:44:51.655Z,98.20
2017-09-13T13:47:19.173Z,99.10
2017-09-13T13:49:47.585Z,98.60
2017-09-13T13:52:15.104Z,98.50
2017-09-13T13:54:43.521Z,97.70
2017-09-13T13:57:11.065Z,97.70
2017-09-13T13:59:38.585Z,97.00
2017-09-13T14:02:06.110Z,97.40
2017-09-13T14:04:34.516Z,97.20
2017-09-13T14:07:02.134Z,96.50
2017-09-13T14:09:29.658Z,97.80
2017-09-13T14:11:57.962Z,99.10
2017-09-13T14:14:25.486Z,99.00
2017-09-13T14:16:53.004Z,98.40
2017-09-13T14:19:21.461Z,97.90
2017-09-13T14:21:48.989Z,97.20
2017-09-13T14:24:17.277Z,93.20
2017-09-13T14:26:45.581Z,90.30
2017-09-13T14:29:13.105Z,90.30
2017-09-13T14:31:41.389Z,89.40
2017-09-13T14:34:09.701Z,91.80
2017-09-13T14:36:37.261Z,91.80
2017-09-13T14:39:04.787Z,94.50
2017-09-13T14:41:33.097Z,99.00
2017-09-13T14:44:00.627Z,99.00
2017-09-13T14:46:28.917Z,99.90
2017-09-13T14:48:56.465Z,99.90
2017-09-13T14:51:24.056Z,99.90
2017-09-13T14:53:53.351Z,99.90
2017-09-13T14:56:20.892Z,99.90
2017-09-13T14:58:48.471Z,99.90
2017-09-13T15:01:15.999Z,99.90
2017-09-13T15:03:44.305Z,99.90
2017-09-13T15:06:11.878Z,99.90
2017-09-13T15:08:39.398Z,99.90
2017-09-13T15:11:07.710Z,99.90
2017-09-13T15:13:35.266Z,99.90
2017-09-13T15:16:02.790Z,99.90
2017-09-13T15:18:31.098Z,99.90
2017-09-13T15:20:58.659Z,99.90
2017-09-13T15:23:26.226Z,99.90
2017-09-13T15:25:53.779Z,99.90
2017-09-13T15:28:21.301Z,99.90
2017-09-13T15:30:49.594Z,99.90
2017-09-13T15:33:17.618Z,99.90
2017-09-13T15:35:45.141Z,99.90
2017-09-13T15:38:12.701Z,99.90
2017-09-13T15:40:40.241Z,99.90
2017-09-13T15:43:07.827Z,99.90
2017-09-13T15:45:35.345Z,99.90
2017-09-13T15:48:03.665Z,99.90
2017-09-13T15:50:31.181Z,99.90
2017-09-13T15:52:59.464Z,99.90
2017-09-13T15:55:27.770Z,99.90
2017-09-13T15:57:55.296Z,99.90
2017-09-13T16:00:24.514Z,99.90
2017-09-13T16:02:52.094Z,99.90
2017-09-13T16:05:19.614Z,99.90
2017-09-13T16:07:47.926Z,99.90
2017-09-13T16:10:15.466Z,99.90
2017-09-13T16:12:42.993Z,99.90
2017-09-13T16:15:10.509Z,99.90
2017-09-13T16:17:38.055Z,99.90
2017-09-13T16:20:05.594Z,99.90
2017-09-13T16:22:33.886Z,99.90
2017-09-13T16:25:01.462Z,99.90
2017-09-13T16:27:29.021Z,99.90
2017-09-13T16:29:56.553Z,99.90
2017-09-13T16:32:24.093Z,99.90
2017-09-13T16:34:52.382Z,99.90
2017-09-13T16:37:20.672Z,99.90
2017-09-13T16:39:48.213Z,99.90
2017-09-13T16:42:16.501Z,99.90
2017-09-13T16:44:44.781Z,99.90
2017-09-13T16:47:12.325Z,99.90
2017-09-13T16:49:40.605Z,99.90
2017-09-13T16:52:08.893Z,99.90
2017-09-13T16:54:36.431Z,99.90
2017-09-13T16:57:04.717Z,99.90
2017-09-13T16:59:33.005Z,99.90
2017-09-13T17:02:01.415Z,99.90
2017-09-13T17:04:28.949Z,99.90
2017-09-13T17:06:57.347Z,99.90
2017-09-13T17:09:24.892Z,99.90
2017-09-13T17:11:52.464Z,99.90
2017-09-13T17:14:19.991Z,99.90
2017-09-13T17:16:48.293Z,99.90
2017-09-13T17:19:15.819Z,99.90
2017-09-13T17:21:44.115Z,99.90
2017-09-13T17:24:11.703Z,99.90
2017-09-13T17:26:39.230Z,99.90
2017-09-13T17:29:07.574Z,99.90
2017-09-13T17:31:36.621Z,99.90
2017-09-13T17:34:04.142Z,99.90
2017-09-13T17:36:31.682Z,99.90
2017-09-13T17:38:59.314Z,99.90
2017-09-13T17:41:27.759Z,99.90
2017-09-13T17:43:56.057Z,99.90
2017-09-13T17:46:23.608Z,99.90
2017-09-13T17:48:51.212Z,99.90
2017-09-13T17:51:18.738Z,99.90
2017-09-13T17:53:46.303Z,99.90
2017-09-13T17:56:13.825Z,99.90
2017-09-13T17:58:42.115Z,99.90
2017-09-13T18:01:10.463Z,99.90
2017-09-13T18:03:37.993Z,99.90
2017-09-13T18:06:05.517Z,99.90
2017-09-13T18:08:33.707Z,99.90
2017-09-13T18:11:01.280Z,99.90
2017-09-13T18:13:28.815Z,99.90
2017-09-13T18:15:57.123Z,99.90
2017-09-13T18:18:24.646Z,99.90
2017-09-13T18:20:52.179Z,99.90
2017-09-13T18:23:20.522Z,99.90
2017-09-13T18:25:48.076Z,99.90
2017-09-13T18:28:15.607Z,99.90
2017-09-13T18:30:43.198Z,99.90
2017-09-13T18:33:10.734Z,99.90
2017-09-13T18:35:38.272Z,99.90
2017-09-13T18:38:06.592Z,99.90
2017-09-13T18:40:34.135Z,99.90
2017-09-13T18:43:01.678Z,99.90
2017-09-13T18:45:30.386Z,99.90
2017-09-13T18:47:57.915Z,99.90
2017-09-13T18:50:26.225Z,99.90
2017-09-13T18:52:53.803Z,99.90
2017-09-13T18:55:21.325Z,99.90
2017-09-13T18:57:48.845Z,99.90
2017-09-13T19:00:16.465Z,99.90
2017-09-13T19:02:44.125Z,99.90
2017-09-13T19:05:11.715Z,99.90
2017-09-13T19:07:39.262Z,99.90
2017-09-13T19:10:06.793Z,99.90
2017-09-13T19:12:34.317Z,99.90
2017-09-13T19:15:01.875Z,99.90
2017-09-13T19:17:31.146Z,99.90
2017-09-13T19:19:58.674Z,99.90
2017-09-13T19:22:27.626Z,99.90
2017-09-13T19:24:55.223Z,99.90
2017-09-13T19:27:22.750Z,99.90
2017-09-13T19:29:51.062Z,99.90
2017-09-13T19:32:18.598Z,99.90
2017-09-13T19:34:46.904Z,99.90
2017-09-13T19:37:15.065Z,99.90
2017-09-13T19:39:42.677Z,99.90
2017-09-13T19:42:10.979Z,99.90
2017-09-13T19:44:39.376Z,99.90
2017-09-13T19:47:06.920Z,99.90
2017-09-13T19:49:35.248Z,99.90
2017-09-13T19:52:02.809Z,99.90
2017-09-13T19:54:30.359Z,99.90
2017-09-13T19:56:57.893Z,99.90
2017-09-13T19:59:25.439Z,99.90
2017-09-13T20:01:53.753Z,99.90
2017-09-13T20:04:21.273Z,99.90
2017-09-13T20:06:49.593Z,99.90
2017-09-13T20:09:17.133Z,99.90
2017-09-13T20:11:44.686Z,99.90
2017-09-13T20:14:12.254Z,99.90
2017-09-13T20:16:39.863Z,99.90
2017-09-13T20:19:08.164Z,99.90
2017-09-13T20:21:35.769Z,99.90
2017-09-13T20:24:03.296Z,99.90
2017-09-13T20:26:30.898Z,99.90
2017-09-13T20:28:58.446Z,99.90
2017-09-13T20:31:25.994Z,99.90
2017-09-13T20:33:53.518Z,99.90
2017-09-13T20:36:21.831Z,99.90
2017-09-13T20:38:49.370Z,99.90
2017-09-13T20:41:17.662Z,99.90
2017-09-13T20:43:45.201Z,99.90
2017-09-13T20:46:13.509Z,99.90
2017-09-13T20:48:41.072Z,99.90
2017-09-13T20:51:08.626Z,99.90
2017-09-13T20:53:36.153Z,99.90
2017-09-13T20:56:03.867Z,99.90
2017-09-13T20:58:31.409Z,99.90
2017-09-13T21:00:58.995Z,99.90
2017-09-13T21:03:26.531Z,99.90
2017-09-13T21:05:54.069Z,99.90
2017-09-13T21:08:21.644Z,99.90
2017-09-13T21:10:49.309Z,99.90
2017-09-13T21:13:16.852Z,99.90
2017-09-13T21:15:44.368Z,99.90
2017-09-13T21:18:11.888Z,99.90
2017-09-13T21:20:39.442Z,99.90
2017-09-13T21:23:06.973Z,99.90
2017-09-13T21:25:35.586Z,99.90
2017-09-13T21:28:03.170Z,99.90
2017-09-13T21:30:30.705Z,99.90
2017-09-13T21:32:58.234Z,99.90
2017-09-13T21:35:26.542Z,99.90
2017-09-13T21:37:54.061Z,99.90
2017-09-13T21:40:22.382Z,99.90
2017-09-13T21:42:49.968Z,99.90
2017-09-13T21:45:17.486Z,99.90
2017-09-13T21:47:45.061Z,99.90
2017-09-13T21:50:12.609Z,99.90
2017-09-13T21:52:40.178Z,99.90
2017-09-13T21:55:07.697Z,99.90
2017-09-13T21:57:36.724Z,99.90
2017-09-13T22:00:04.250Z,99.90
2017-09-13T22:02:32.570Z,99.90
2017-09-13T22:05:00.149Z,99.90
2017-09-13T22:07:27.679Z,99.90
2017-09-13T22:09:55.213Z,99.90
2017-09-13T22:12:23.523Z,99.90
2017-09-13T22:14:51.062Z,99.90
2017-09-13T22:17:18.666Z,99.90
2017-09-13T22:19:46.210Z,99.90
2017-09-13T22:22:13.735Z,99.90
2017-09-13T22:24:42.040Z,99.90
2017-09-13T22:27:09.602Z,99.90
2017-09-13T22:29:37.126Z,99.90
2017-09-13T22:32:05.758Z,99.90
2017-09-13T22:34:33.294Z,99.90
2017-09-13T22:37:01.090Z,99.90
2017-09-13T22:39:28.614Z,99.90
2017-09-13T22:41:56.154Z,99.90
2017-09-13T22:44:24.467Z,99.90
2017-09-13T22:46:51.993Z,99.90
2017-09-13T22:49:20.405Z,99.90
2017-09-13T22:51:47.925Z,99.90
2017-09-13T22:54:16.222Z,99.90
2017-09-13T22:56:43.765Z,99.90
2017-09-13T22:59:12.071Z,99.90
2017-09-13T23:01:39.593Z,99.90
2017-09-13T23:04:08.821Z,99.90
2017-09-13T23:06:36.389Z,99.90
2017-09-13T23:09:03.913Z,99.90
2017-09-13T23:11:32.223Z,99.90
2017-09-13T23:13:59.745Z,99.90
2017-09-13T23:16:28.027Z,99.90
2017-09-13T23:18:56.331Z,99.90
2017-09-13T23:21:23.851Z,99.90
2017-09-13T23:23:52.142Z,99.90
2017-09-13T23:26:20.454Z,99.90
2017-09-13T23:28:48.023Z,99.90
2017-09-13T23:31:15.542Z,99.90
2017-09-13T23:33:43.858Z,99.90
2017-09-13T23:36:11.392Z,99.90
2017-09-13T23:38:39.452Z,99.90
2017-09-13T23:41:07.760Z,99.90
2017-09-13T23:43:35.286Z,99.90
2017-09-13T23:46:03.570Z,99.90
2017-09-13T23:48:31.125Z,99.90
2017-09-13T23:50:58.658Z,99.90
2017-09-13T23:53:26.178Z,99.90
2017-09-13T23:55:53.723Z,99.90
2017-09-13T23:58:21.245Z,99.90
